sensor_id;sensor_type;location;lat;lon;timestamp;P1;durP1;ratioP1;P2;durP2;ratioP2
2892;SDS011;1456;51.840;12.184;2023-08-07T00:00:52;1.67;;;1.67;;
2892;SDS011;1456;51.840;12.184;2023-08-07T00:05:48;3.10;;;3.10;;
2892;SDS011;1456;51.840;12.184;2023-08-07T00:08:14;2.83;;;2.63;;
2892;SDS011;1456;51.840;12.184;2023-08-07T00:10:39;2.10;;;2.10;;
2892;SDS011;1456;51.840;12.184;2023-08-07T00:13:05;3.43;;;3.20;;
2892;SDS011;1456;51.840;12.184;2023-08-07T00:15:32;2.73;;;2.63;;
2892;SDS011;1456;51.840;12.184;2023-08-07T00:18:00;6.20;;;3.20;;
2892;SDS011;1456;51.840;12.184;2023-08-07T00:20:27;1.77;;;1.77;;
2892;SDS011;1456;51.840;12.184;2023-08-07T00:22:53;1.70;;;1.70;;
2892;SDS011;1456;51.840;12.184;2023-08-07T00:25:19;1.90;;;1.90;;
2892;SDS011;1456;51.840;12.184;2023-08-07T00:27:44;2.17;;;2.17;;
2892;SDS011;1456;51.840;12.184;2023-08-07T00:30:11;2.07;;;1.97;;
2892;SDS011;1456;51.840;12.184;2023-08-07T00:32:37;2.47;;;2.47;;
2892;SDS011;1456;51.840;12.184;2023-08-07T00:35:03;2.77;;;2.47;;
2892;SDS011;1456;51.840;12.184;2023-08-07T00:37:30;1.83;;;1.83;;
2892;SDS011;1456;51.840;12.184;2023-08-07T00:39:55;1.80;;;1.70;;
2892;SDS011;1456;51.840;12.184;2023-08-07T00:42:21;1.87;;;1.87;;
2892;SDS011;1456;51.840;12.184;2023-08-07T00:44:47;2.83;;;1.97;;
2892;SDS011;1456;51.840;12.184;2023-08-07T00:47:13;1.50;;;1.50;;
2892;SDS011;1456;51.840;12.184;2023-08-07T00:49:39;1.10;;;1.10;;
2892;SDS011;1456;51.840;12.184;2023-08-07T00:52:05;2.87;;;2.13;;
2892;SDS011;1456;51.840;12.184;2023-08-07T00:54:32;1.10;;;1.10;;
2892;SDS011;1456;51.840;12.184;2023-08-07T00:56:59;1.10;;;1.10;;
2892;SDS011;1456;51.840;12.184;2023-08-07T00:59:32;1.33;;;1.33;;
2892;SDS011;1456;51.840;12.184;2023-08-07T01:01:59;1.50;;;1.50;;
2892;SDS011;1456;51.840;12.184;2023-08-07T01:04:25;1.13;;;1.13;;
2892;SDS011;1456;51.840;12.184;2023-08-07T01:06:51;1.60;;;1.50;;
2892;SDS011;1456;51.840;12.184;2023-08-07T01:09:17;2.37;;;2.27;;
2892;SDS011;1456;51.840;12.184;2023-08-07T01:11:48;1.70;;;1.60;;
2892;SDS011;1456;51.840;12.184;2023-08-07T01:17:08;1.97;;;1.70;;
2892;SDS011;1456;51.840;12.184;2023-08-07T01:19:37;1.40;;;1.40;;
2892;SDS011;1456;51.840;12.184;2023-08-07T01:22:11;3.30;;;2.13;;
2892;SDS011;1456;51.840;12.184;2023-08-07T01:24:38;1.60;;;1.50;;
2892;SDS011;1456;51.840;12.184;2023-08-07T01:30:05;1.80;;;1.80;;
2892;SDS011;1456;51.840;12.184;2023-08-07T01:35:29;1.40;;;1.40;;
2892;SDS011;1456;51.840;12.184;2023-08-07T01:37:58;1.10;;;1.10;;
2892;SDS011;1456;51.840;12.184;2023-08-07T01:40:26;1.30;;;1.20;;
2892;SDS011;1456;51.840;12.184;2023-08-07T01:42:53;1.47;;;1.47;;
2892;SDS011;1456;51.840;12.184;2023-08-07T01:45:22;3.50;;;2.23;;
2892;SDS011;1456;51.840;12.184;2023-08-07T01:47:51;1.30;;;1.30;;
2892;SDS011;1456;51.840;12.184;2023-08-07T01:50:20;1.67;;;1.67;;
2892;SDS011;1456;51.840;12.184;2023-08-07T01:52:47;0.80;;;0.80;;
2892;SDS011;1456;51.840;12.184;2023-08-07T01:55:13;1.00;;;1.00;;
2892;SDS011;1456;51.840;12.184;2023-08-07T01:57:42;1.63;;;1.63;;
2892;SDS011;1456;51.840;12.184;2023-08-07T02:00:08;2.03;;;1.93;;
2892;SDS011;1456;51.840;12.184;2023-08-07T02:02:34;1.13;;;1.13;;
2892;SDS011;1456;51.840;12.184;2023-08-07T02:05:03;1.20;;;1.20;;
2892;SDS011;1456;51.840;12.184;2023-08-07T02:07:29;1.67;;;1.63;;
2892;SDS011;1456;51.840;12.184;2023-08-07T02:09:55;1.00;;;1.00;;
2892;SDS011;1456;51.840;12.184;2023-08-07T02:12:21;1.83;;;1.67;;
2892;SDS011;1456;51.840;12.184;2023-08-07T02:14:47;1.97;;;1.77;;
2892;SDS011;1456;51.840;12.184;2023-08-07T02:17:13;1.20;;;1.20;;
2892;SDS011;1456;51.840;12.184;2023-08-07T02:19:38;2.33;;;2.23;;
2892;SDS011;1456;51.840;12.184;2023-08-07T02:22:10;2.23;;;2.13;;
2892;SDS011;1456;51.840;12.184;2023-08-07T02:24:36;1.57;;;1.57;;
2892;SDS011;1456;51.840;12.184;2023-08-07T02:27:03;2.57;;;2.40;;
2892;SDS011;1456;51.840;12.184;2023-08-07T02:29:29;3.70;;;2.30;;
2892;SDS011;1456;51.840;12.184;2023-08-07T02:31:55;2.00;;;2.00;;
2892;SDS011;1456;51.840;12.184;2023-08-07T02:34:22;2.10;;;2.10;;
2892;SDS011;1456;51.840;12.184;2023-08-07T02:36:47;2.70;;;2.60;;
2892;SDS011;1456;51.840;12.184;2023-08-07T02:39:13;3.47;;;2.10;;
2892;SDS011;1456;51.840;12.184;2023-08-07T02:41:39;2.77;;;2.70;;
2892;SDS011;1456;51.840;12.184;2023-08-07T02:44:05;2.40;;;2.40;;
2892;SDS011;1456;51.840;12.184;2023-08-07T02:46:31;2.20;;;2.20;;
2892;SDS011;1456;51.840;12.184;2023-08-07T02:48:56;4.10;;;3.90;;
2892;SDS011;1456;51.840;12.184;2023-08-07T02:51:22;2.87;;;2.77;;
2892;SDS011;1456;51.840;12.184;2023-08-07T02:53:48;5.13;;;4.93;;
2892;SDS011;1456;51.840;12.184;2023-08-07T02:56:13;4.03;;;3.77;;
2892;SDS011;1456;51.840;12.184;2023-08-07T02:58:39;6.10;;;4.83;;
2892;SDS011;1456;51.840;12.184;2023-08-07T03:01:05;6.07;;;5.57;;
2892;SDS011;1456;51.840;12.184;2023-08-07T03:03:31;2.70;;;2.60;;
2892;SDS011;1456;51.840;12.184;2023-08-07T03:05:57;2.67;;;2.57;;
2892;SDS011;1456;51.840;12.184;2023-08-07T03:08:23;3.60;;;3.50;;
2892;SDS011;1456;51.840;12.184;2023-08-07T03:10:53;2.90;;;2.80;;
2892;SDS011;1456;51.840;12.184;2023-08-07T03:13:21;3.30;;;2.30;;
2892;SDS011;1456;51.840;12.184;2023-08-07T03:15:47;6.57;;;2.53;;
2892;SDS011;1456;51.840;12.184;2023-08-07T03:18:15;4.47;;;2.13;;
2892;SDS011;1456;51.840;12.184;2023-08-07T03:20:41;3.67;;;3.40;;
2892;SDS011;1456;51.840;12.184;2023-08-07T03:23:09;3.33;;;3.23;;
2892;SDS011;1456;51.840;12.184;2023-08-07T03:25:35;2.30;;;2.30;;
2892;SDS011;1456;51.840;12.184;2023-08-07T03:28:01;3.10;;;2.97;;
2892;SDS011;1456;51.840;12.184;2023-08-07T03:30:34;2.63;;;2.53;;
2892;SDS011;1456;51.840;12.184;2023-08-07T03:33:00;2.67;;;2.57;;
2892;SDS011;1456;51.840;12.184;2023-08-07T03:35:25;7.63;;;4.00;;
2892;SDS011;1456;51.840;12.184;2023-08-07T03:37:52;2.70;;;2.60;;
2892;SDS011;1456;51.840;12.184;2023-08-07T03:40:19;1.70;;;1.70;;
2892;SDS011;1456;51.840;12.184;2023-08-07T03:42:44;2.03;;;2.03;;
2892;SDS011;1456;51.840;12.184;2023-08-07T03:45:10;2.13;;;2.13;;
2892;SDS011;1456;51.840;12.184;2023-08-07T03:47:36;2.50;;;2.40;;
2892;SDS011;1456;51.840;12.184;2023-08-07T03:50:01;2.87;;;2.77;;
2892;SDS011;1456;51.840;12.184;2023-08-07T03:52:27;3.30;;;2.77;;
2892;SDS011;1456;51.840;12.184;2023-08-07T03:54:54;1.90;;;1.80;;
2892;SDS011;1456;51.840;12.184;2023-08-07T03:57:19;4.53;;;3.17;;
2892;SDS011;1456;51.840;12.184;2023-08-07T03:59:45;3.23;;;3.13;;
2892;SDS011;1456;51.840;12.184;2023-08-07T04:02:11;4.00;;;3.90;;
2892;SDS011;1456;51.840;12.184;2023-08-07T04:04:36;3.23;;;3.13;;
2892;SDS011;1456;51.840;12.184;2023-08-07T04:07:02;3.00;;;2.80;;
2892;SDS011;1456;51.840;12.184;2023-08-07T04:09:28;2.13;;;1.87;;
2892;SDS011;1456;51.840;12.184;2023-08-07T04:11:55;2.20;;;2.20;;
2892;SDS011;1456;51.840;12.184;2023-08-07T04:14:20;1.97;;;1.90;;
2892;SDS011;1456;51.840;12.184;2023-08-07T04:16:46;2.20;;;2.07;;
2892;SDS011;1456;51.840;12.184;2023-08-07T04:19:12;2.23;;;1.77;;
2892;SDS011;1456;51.840;12.184;2023-08-07T04:21:37;1.47;;;1.37;;
2892;SDS011;1456;51.840;12.184;2023-08-07T04:24:03;2.60;;;2.50;;
2892;SDS011;1456;51.840;12.184;2023-08-07T04:26:36;1.83;;;1.73;;
2892;SDS011;1456;51.840;12.184;2023-08-07T04:29:03;2.10;;;2.00;;
2892;SDS011;1456;51.840;12.184;2023-08-07T04:31:29;1.90;;;1.80;;
2892;SDS011;1456;51.840;12.184;2023-08-07T04:33:59;1.90;;;1.83;;
2892;SDS011;1456;51.840;12.184;2023-08-07T04:36:24;2.03;;;1.93;;
2892;SDS011;1456;51.840;12.184;2023-08-07T04:38:52;0.90;;;0.90;;
2892;SDS011;1456;51.840;12.184;2023-08-07T04:41:20;1.43;;;1.43;;
2892;SDS011;1456;51.840;12.184;2023-08-07T04:43:46;1.33;;;1.20;;
2892;SDS011;1456;51.840;12.184;2023-08-07T04:46:13;0.90;;;0.90;;
2892;SDS011;1456;51.840;12.184;2023-08-07T04:48:39;2.10;;;1.80;;
2892;SDS011;1456;51.840;12.184;2023-08-07T04:51:05;1.60;;;1.50;;
2892;SDS011;1456;51.840;12.184;2023-08-07T04:53:31;2.43;;;1.57;;
2892;SDS011;1456;51.840;12.184;2023-08-07T04:55:59;1.27;;;1.27;;
2892;SDS011;1456;51.840;12.184;2023-08-07T04:58:25;1.27;;;1.27;;
2892;SDS011;1456;51.840;12.184;2023-08-07T05:00:57;1.70;;;1.70;;
2892;SDS011;1456;51.840;12.184;2023-08-07T05:03:24;2.77;;;2.53;;
2892;SDS011;1456;51.840;12.184;2023-08-07T05:05:57;1.33;;;1.33;;
2892;SDS011;1456;51.840;12.184;2023-08-07T05:08:25;1.30;;;1.30;;
2892;SDS011;1456;51.840;12.184;2023-08-07T05:10:51;1.60;;;1.60;;
2892;SDS011;1456;51.840;12.184;2023-08-07T05:13:16;2.73;;;2.53;;
2892;SDS011;1456;51.840;12.184;2023-08-07T05:15:42;1.43;;;1.43;;
2892;SDS011;1456;51.840;12.184;2023-08-07T05:18:08;1.70;;;1.60;;
2892;SDS011;1456;51.840;12.184;2023-08-07T05:20:33;2.53;;;2.33;;
2892;SDS011;1456;51.840;12.184;2023-08-07T05:23:00;2.30;;;2.30;;
2892;SDS011;1456;51.840;12.184;2023-08-07T05:25:28;2.43;;;2.33;;
2892;SDS011;1456;51.840;12.184;2023-08-07T05:27:53;1.30;;;1.30;;
2892;SDS011;1456;51.840;12.184;2023-08-07T05:30:21;2.87;;;2.67;;
2892;SDS011;1456;51.840;12.184;2023-08-07T05:32:50;2.33;;;2.33;;
2892;SDS011;1456;51.840;12.184;2023-08-07T05:35:15;2.80;;;2.60;;
2892;SDS011;1456;51.840;12.184;2023-08-07T05:37:42;3.20;;;3.10;;
2892;SDS011;1456;51.840;12.184;2023-08-07T05:40:07;4.47;;;2.07;;
2892;SDS011;1456;51.840;12.184;2023-08-07T05:42:39;1.40;;;1.30;;
2892;SDS011;1456;51.840;12.184;2023-08-07T05:45:08;3.00;;;2.90;;
2892;SDS011;1456;51.840;12.184;2023-08-07T05:47:35;3.17;;;1.83;;
2892;SDS011;1456;51.840;12.184;2023-08-07T05:50:02;1.60;;;1.60;;
2892;SDS011;1456;51.840;12.184;2023-08-07T05:52:28;2.37;;;2.03;;
2892;SDS011;1456;51.840;12.184;2023-08-07T05:54:55;3.93;;;2.40;;
2892;SDS011;1456;51.840;12.184;2023-08-07T05:57:20;2.83;;;1.30;;
2892;SDS011;1456;51.840;12.184;2023-08-07T05:59:48;1.30;;;1.20;;
2892;SDS011;1456;51.840;12.184;2023-08-07T06:02:19;1.87;;;1.77;;
2892;SDS011;1456;51.840;12.184;2023-08-07T06:04:45;2.13;;;1.73;;
2892;SDS011;1456;51.840;12.184;2023-08-07T06:07:11;1.63;;;1.53;;
2892;SDS011;1456;51.840;12.184;2023-08-07T06:09:37;3.37;;;1.40;;
2892;SDS011;1456;51.840;12.184;2023-08-07T06:12:03;2.50;;;2.10;;
2892;SDS011;1456;51.840;12.184;2023-08-07T06:14:29;2.03;;;1.43;;
2892;SDS011;1456;51.840;12.184;2023-08-07T06:17:01;1.33;;;1.23;;
2892;SDS011;1456;51.840;12.184;2023-08-07T06:19:27;0.63;;;0.63;;
2892;SDS011;1456;51.840;12.184;2023-08-07T06:21:55;2.40;;;2.30;;
2892;SDS011;1456;51.840;12.184;2023-08-07T06:24:22;2.20;;;1.00;;
2892;SDS011;1456;51.840;12.184;2023-08-07T06:26:49;0.63;;;0.50;;
2892;SDS011;1456;51.840;12.184;2023-08-07T06:29:15;0.90;;;0.83;;
2892;SDS011;1456;51.840;12.184;2023-08-07T06:31:42;0.97;;;0.97;;
2892;SDS011;1456;51.840;12.184;2023-08-07T06:34:08;1.30;;;1.23;;
2892;SDS011;1456;51.840;12.184;2023-08-07T06:36:34;1.13;;;0.70;;
2892;SDS011;1456;51.840;12.184;2023-08-07T06:39:01;1.00;;;0.73;;
2892;SDS011;1456;51.840;12.184;2023-08-07T06:41:27;0.87;;;0.70;;
2892;SDS011;1456;51.840;12.184;2023-08-07T06:43:53;1.53;;;1.50;;
2892;SDS011;1456;51.840;12.184;2023-08-07T06:46:19;1.90;;;1.80;;
2892;SDS011;1456;51.840;12.184;2023-08-07T06:48:49;5.20;;;3.03;;
2892;SDS011;1456;51.840;12.184;2023-08-07T06:51:16;2.67;;;0.80;;
2892;SDS011;1456;51.840;12.184;2023-08-07T06:53:42;0.90;;;0.70;;
2892;SDS011;1456;51.840;12.184;2023-08-07T06:56:08;1.43;;;1.40;;
2892;SDS011;1456;51.840;12.184;2023-08-07T06:58:35;1.87;;;1.77;;
2892;SDS011;1456;51.840;12.184;2023-08-07T07:01:00;2.03;;;0.90;;
2892;SDS011;1456;51.840;12.184;2023-08-07T07:03:27;0.50;;;0.50;;
2892;SDS011;1456;51.840;12.184;2023-08-07T07:05:54;1.80;;;1.40;;
2892;SDS011;1456;51.840;12.184;2023-08-07T07:08:20;0.90;;;0.90;;
2892;SDS011;1456;51.840;12.184;2023-08-07T07:10:49;0.90;;;0.90;;
2892;SDS011;1456;51.840;12.184;2023-08-07T07:13:14;1.70;;;1.67;;
2892;SDS011;1456;51.840;12.184;2023-08-07T07:15:41;2.20;;;2.20;;
2892;SDS011;1456;51.840;12.184;2023-08-07T07:18:07;1.00;;;1.00;;
2892;SDS011;1456;51.840;12.184;2023-08-07T07:20:32;1.20;;;1.20;;
2892;SDS011;1456;51.840;12.184;2023-08-07T07:22:58;1.30;;;1.30;;
2892;SDS011;1456;51.840;12.184;2023-08-07T07:25:24;1.33;;;1.33;;
2892;SDS011;1456;51.840;12.184;2023-08-07T07:27:50;1.30;;;1.30;;
2892;SDS011;1456;51.840;12.184;2023-08-07T07:30:16;1.90;;;1.03;;
2892;SDS011;1456;51.840;12.184;2023-08-07T07:32:43;1.20;;;1.20;;
2892;SDS011;1456;51.840;12.184;2023-08-07T07:35:09;1.40;;;1.40;;
2892;SDS011;1456;51.840;12.184;2023-08-07T07:37:34;1.73;;;1.63;;
2892;SDS011;1456;51.840;12.184;2023-08-07T07:40:00;1.90;;;1.90;;
2892;SDS011;1456;51.840;12.184;2023-08-07T07:42:26;1.30;;;1.30;;
2892;SDS011;1456;51.840;12.184;2023-08-07T07:44:51;0.80;;;0.80;;
2892;SDS011;1456;51.840;12.184;2023-08-07T07:47:20;0.90;;;0.90;;
2892;SDS011;1456;51.840;12.184;2023-08-07T07:49:47;2.10;;;1.10;;
2892;SDS011;1456;51.840;12.184;2023-08-07T07:52:13;0.60;;;0.60;;
2892;SDS011;1456;51.840;12.184;2023-08-07T07:54:39;0.80;;;0.80;;
2892;SDS011;1456;51.840;12.184;2023-08-07T07:57:05;1.17;;;1.17;;
2892;SDS011;1456;51.840;12.184;2023-08-07T07:59:31;2.00;;;1.90;;
2892;SDS011;1456;51.840;12.184;2023-08-07T08:01:56;2.07;;;1.87;;
2892;SDS011;1456;51.840;12.184;2023-08-07T08:04:22;2.97;;;2.23;;
2892;SDS011;1456;51.840;12.184;2023-08-07T08:06:49;0.97;;;0.97;;
2892;SDS011;1456;51.840;12.184;2023-08-07T08:09:15;1.50;;;1.50;;
2892;SDS011;1456;51.840;12.184;2023-08-07T08:11:41;1.53;;;1.53;;
2892;SDS011;1456;51.840;12.184;2023-08-07T08:14:08;1.40;;;1.30;;
2892;SDS011;1456;51.840;12.184;2023-08-07T08:16:34;1.07;;;1.07;;
2892;SDS011;1456;51.840;12.184;2023-08-07T08:19:00;1.10;;;1.10;;
2892;SDS011;1456;51.840;12.184;2023-08-07T08:21:27;3.70;;;2.73;;
2892;SDS011;1456;51.840;12.184;2023-08-07T08:23:52;1.20;;;1.10;;
2892;SDS011;1456;51.840;12.184;2023-08-07T08:26:18;1.50;;;1.50;;
2892;SDS011;1456;51.840;12.184;2023-08-07T08:28:46;1.20;;;1.20;;
2892;SDS011;1456;51.840;12.184;2023-08-07T08:31:13;0.90;;;0.90;;
2892;SDS011;1456;51.840;12.184;2023-08-07T08:33:38;0.80;;;0.80;;
2892;SDS011;1456;51.840;12.184;2023-08-07T08:36:06;0.70;;;0.70;;
2892;SDS011;1456;51.840;12.184;2023-08-07T08:38:32;1.07;;;1.07;;
2892;SDS011;1456;51.840;12.184;2023-08-07T08:41:01;1.10;;;1.10;;
2892;SDS011;1456;51.840;12.184;2023-08-07T08:43:29;1.00;;;1.00;;
2892;SDS011;1456;51.840;12.184;2023-08-07T08:46:00;0.80;;;0.80;;
2892;SDS011;1456;51.840;12.184;2023-08-07T08:48:26;1.10;;;1.10;;
2892;SDS011;1456;51.840;12.184;2023-08-07T08:50:56;2.30;;;1.10;;
2892;SDS011;1456;51.840;12.184;2023-08-07T08:53:23;0.90;;;0.90;;
2892;SDS011;1456;51.840;12.184;2023-08-07T08:55:51;1.10;;;1.10;;
2892;SDS011;1456;51.840;12.184;2023-08-07T08:58:18;1.60;;;1.60;;
2892;SDS011;1456;51.840;12.184;2023-08-07T09:00:46;1.57;;;1.57;;
2892;SDS011;1456;51.840;12.184;2023-08-07T09:03:12;1.73;;;1.67;;
2892;SDS011;1456;51.840;12.184;2023-08-07T09:05:38;1.53;;;1.53;;
2892;SDS011;1456;51.840;12.184;2023-08-07T09:08:06;3.87;;;3.67;;
2892;SDS011;1456;51.840;12.184;2023-08-07T09:10:32;2.80;;;2.80;;
2892;SDS011;1456;51.840;12.184;2023-08-07T09:13:01;3.00;;;2.90;;
2892;SDS011;1456;51.840;12.184;2023-08-07T09:15:30;2.43;;;2.43;;
2892;SDS011;1456;51.840;12.184;2023-08-07T09:17:57;3.30;;;3.30;;
2892;SDS011;1456;51.840;12.184;2023-08-07T09:20:25;3.70;;;3.63;;
2892;SDS011;1456;51.840;12.184;2023-08-07T09:22:51;3.43;;;3.40;;
2892;SDS011;1456;51.840;12.184;2023-08-07T09:25:28;4.00;;;4.00;;
2892;SDS011;1456;51.840;12.184;2023-08-07T09:27:55;11.10;;;11.00;;
2892;SDS011;1456;51.840;12.184;2023-08-07T09:30:26;11.10;;;10.90;;
2892;SDS011;1456;51.840;12.184;2023-08-07T09:32:56;10.60;;;10.50;;
2892;SDS011;1456;51.840;12.184;2023-08-07T09:35:23;11.13;;;11.03;;
2892;SDS011;1456;51.840;12.184;2023-08-07T09:37:50;10.97;;;10.77;;
2892;SDS011;1456;51.840;12.184;2023-08-07T09:40:17;4.80;;;4.80;;
2892;SDS011;1456;51.840;12.184;2023-08-07T09:42:50;5.37;;;5.20;;
2892;SDS011;1456;51.840;12.184;2023-08-07T09:45:20;5.00;;;5.00;;
2892;SDS011;1456;51.840;12.184;2023-08-07T09:47:46;12.87;;;12.67;;
2892;SDS011;1456;51.840;12.184;2023-08-07T09:50:16;13.83;;;13.63;;
2892;SDS011;1456;51.840;12.184;2023-08-07T09:52:45;4.90;;;4.80;;
2892;SDS011;1456;51.840;12.184;2023-08-07T09:55:14;6.20;;;6.10;;
2892;SDS011;1456;51.840;12.184;2023-08-07T09:57:42;6.40;;;6.30;;
2892;SDS011;1456;51.840;12.184;2023-08-07T10:00:16;5.80;;;5.30;;
2892;SDS011;1456;51.840;12.184;2023-08-07T10:02:45;6.10;;;6.00;;
2892;SDS011;1456;51.840;12.184;2023-08-07T10:05:15;6.40;;;6.30;;
2892;SDS011;1456;51.840;12.184;2023-08-07T10:07:41;13.03;;;12.83;;
2892;SDS011;1456;51.840;12.184;2023-08-07T10:10:07;11.63;;;11.50;;
2892;SDS011;1456;51.840;12.184;2023-08-07T10:12:34;8.00;;;7.80;;
2892;SDS011;1456;51.840;12.184;2023-08-07T10:15:03;7.17;;;7.07;;
2892;SDS011;1456;51.840;12.184;2023-08-07T10:17:31;6.83;;;6.73;;
2892;SDS011;1456;51.840;12.184;2023-08-07T10:19:59;7.80;;;7.70;;
2892;SDS011;1456;51.840;12.184;2023-08-07T10:22:25;8.10;;;8.00;;
2892;SDS011;1456;51.840;12.184;2023-08-07T10:27:22;7.60;;;7.50;;
2892;SDS011;1456;51.840;12.184;2023-08-07T10:29:51;15.30;;;15.00;;
2892;SDS011;1456;51.840;12.184;2023-08-07T10:32:24;15.80;;;15.50;;
2892;SDS011;1456;51.840;12.184;2023-08-07T10:34:53;8.77;;;8.50;;
2892;SDS011;1456;51.840;12.184;2023-08-07T10:40:06;8.37;;;8.27;;
2892;SDS011;1456;51.840;12.184;2023-08-07T10:45:25;8.03;;;7.93;;
2892;SDS011;1456;51.840;12.184;2023-08-07T10:51:03;16.27;;;15.93;;
2892;SDS011;1456;51.840;12.184;2023-08-07T10:56:03;7.77;;;7.67;;
2892;SDS011;1456;51.840;12.184;2023-08-07T10:58:33;8.37;;;8.27;;
2892;SDS011;1456;51.840;12.184;2023-08-07T11:01:16;7.20;;;7.10;;
2892;SDS011;1456;51.840;12.184;2023-08-07T11:03:53;8.60;;;8.50;;
2892;SDS011;1456;51.840;12.184;2023-08-07T11:06:24;16.80;;;16.50;;
2892;SDS011;1456;51.840;12.184;2023-08-07T11:08:56;15.37;;;15.07;;
2892;SDS011;1456;51.840;12.184;2023-08-07T11:11:26;16.33;;;16.03;;
2892;SDS011;1456;51.840;12.184;2023-08-07T11:13:52;8.13;;;8.03;;
2892;SDS011;1456;51.840;12.184;2023-08-07T11:16:19;7.10;;;7.00;;
2892;SDS011;1456;51.840;12.184;2023-08-07T11:18:48;7.40;;;7.30;;
2892;SDS011;1456;51.840;12.184;2023-08-07T11:21:14;8.87;;;8.77;;
2892;SDS011;1456;51.840;12.184;2023-08-07T11:23:40;7.00;;;6.90;;
2892;SDS011;1456;51.840;12.184;2023-08-07T11:26:12;4.40;;;4.30;;
2892;SDS011;1456;51.840;12.184;2023-08-07T11:28:40;2.20;;;2.20;;
2892;SDS011;1456;51.840;12.184;2023-08-07T11:31:05;2.07;;;2.07;;
2892;SDS011;1456;51.840;12.184;2023-08-07T11:33:31;1.90;;;1.80;;
2892;SDS011;1456;51.840;12.184;2023-08-07T11:35:57;1.10;;;1.10;;
2892;SDS011;1456;51.840;12.184;2023-08-07T11:38:37;0.50;;;0.50;;
2892;SDS011;1456;51.840;12.184;2023-08-07T11:41:05;1.07;;;0.97;;
2892;SDS011;1456;51.840;12.184;2023-08-07T11:43:33;0.60;;;0.60;;
2892;SDS011;1456;51.840;12.184;2023-08-07T11:48:40;0.60;;;0.60;;
2892;SDS011;1456;51.840;12.184;2023-08-07T11:51:07;0.50;;;0.50;;
2892;SDS011;1456;51.840;12.184;2023-08-07T11:53:35;0.60;;;0.60;;
2892;SDS011;1456;51.840;12.184;2023-08-07T11:56:05;0.40;;;0.40;;
2892;SDS011;1456;51.840;12.184;2023-08-07T11:58:36;0.60;;;0.60;;
2892;SDS011;1456;51.840;12.184;2023-08-07T12:01:17;1.70;;;1.70;;
2892;SDS011;1456;51.840;12.184;2023-08-07T12:03:56;0.70;;;0.70;;
2892;SDS011;1456;51.840;12.184;2023-08-07T12:06:32;0.70;;;0.70;;
2892;SDS011;1456;51.840;12.184;2023-08-07T12:08:58;0.80;;;0.80;;
2892;SDS011;1456;51.840;12.184;2023-08-07T12:13:59;0.70;;;0.70;;
2892;SDS011;1456;51.840;12.184;2023-08-07T12:16:36;0.60;;;0.60;;
2892;SDS011;1456;51.840;12.184;2023-08-07T12:19:04;1.00;;;1.00;;
2892;SDS011;1456;51.840;12.184;2023-08-07T12:21:29;0.90;;;0.90;;
2892;SDS011;1456;51.840;12.184;2023-08-07T12:23:59;2.73;;;2.63;;
2892;SDS011;1456;51.840;12.184;2023-08-07T12:28:55;2.43;;;2.33;;
2892;SDS011;1456;51.840;12.184;2023-08-07T12:31:21;2.80;;;2.80;;
2892;SDS011;1456;51.840;12.184;2023-08-07T12:33:47;5.03;;;5.03;;
2892;SDS011;1456;51.840;12.184;2023-08-07T12:36:20;7.30;;;7.00;;
2892;SDS011;1456;51.840;12.184;2023-08-07T12:38:47;5.37;;;5.07;;
2892;SDS011;1456;51.840;12.184;2023-08-07T12:41:14;6.60;;;6.50;;
2892;SDS011;1456;51.840;12.184;2023-08-07T12:43:40;11.80;;;11.60;;
2892;SDS011;1456;51.840;12.184;2023-08-07T12:46:05;16.60;;;16.20;;
2892;SDS011;1456;51.840;12.184;2023-08-07T12:48:32;8.20;;;8.07;;
2892;SDS011;1456;51.840;12.184;2023-08-07T12:50:57;8.47;;;8.37;;
2892;SDS011;1456;51.840;12.184;2023-08-07T12:53:23;7.60;;;7.40;;
2892;SDS011;1456;51.840;12.184;2023-08-07T12:55:52;7.90;;;7.80;;
2892;SDS011;1456;51.840;12.184;2023-08-07T12:58:23;8.20;;;8.10;;
2892;SDS011;1456;51.840;12.184;2023-08-07T13:00:52;14.60;;;14.30;;
2892;SDS011;1456;51.840;12.184;2023-08-07T13:03:18;13.40;;;13.20;;
2892;SDS011;1456;51.840;12.184;2023-08-07T13:05:45;7.43;;;7.33;;
2892;SDS011;1456;51.840;12.184;2023-08-07T13:08:10;7.07;;;6.97;;
2892;SDS011;1456;51.840;12.184;2023-08-07T13:10:36;6.33;;;6.27;;
2892;SDS011;1456;51.840;12.184;2023-08-07T13:13:04;4.90;;;4.80;;
2892;SDS011;1456;51.840;12.184;2023-08-07T13:15:32;53.43;;;5.37;;
2892;SDS011;1456;51.840;12.184;2023-08-07T13:17:59;2.57;;;2.57;;
2892;SDS011;1456;51.840;12.184;2023-08-07T13:20:27;1.87;;;1.67;;
2892;SDS011;1456;51.840;12.184;2023-08-07T13:25:27;1.23;;;1.23;;
2892;SDS011;1456;51.840;12.184;2023-08-07T13:27:53;1.43;;;1.43;;
2892;SDS011;1456;51.840;12.184;2023-08-07T13:30:18;1.60;;;1.60;;
2892;SDS011;1456;51.840;12.184;2023-08-07T13:32:45;2.23;;;2.23;;
2892;SDS011;1456;51.840;12.184;2023-08-07T13:35:12;3.00;;;3.00;;
2892;SDS011;1456;51.840;12.184;2023-08-07T13:37:40;2.80;;;2.80;;
2892;SDS011;1456;51.840;12.184;2023-08-07T13:40:06;2.97;;;2.97;;
2892;SDS011;1456;51.840;12.184;2023-08-07T13:42:32;2.70;;;2.70;;
2892;SDS011;1456;51.840;12.184;2023-08-07T13:45:01;3.13;;;3.07;;
2892;SDS011;1456;51.840;12.184;2023-08-07T13:47:28;3.03;;;3.03;;
2892;SDS011;1456;51.840;12.184;2023-08-07T13:49:54;4.00;;;4.00;;
2892;SDS011;1456;51.840;12.184;2023-08-07T13:52:19;7.47;;;7.23;;
2892;SDS011;1456;51.840;12.184;2023-08-07T13:54:45;10.90;;;10.70;;
2892;SDS011;1456;51.840;12.184;2023-08-07T13:57:11;13.60;;;13.40;;
2892;SDS011;1456;51.840;12.184;2023-08-07T13:59:36;7.63;;;7.53;;
2892;SDS011;1456;51.840;12.184;2023-08-07T14:02:02;8.40;;;8.30;;
2892;SDS011;1456;51.840;12.184;2023-08-07T14:04:29;8.97;;;8.77;;
2892;SDS011;1456;51.840;12.184;2023-08-07T14:06:55;7.60;;;7.50;;
2892;SDS011;1456;51.840;12.184;2023-08-07T14:09:27;7.80;;;7.70;;
2892;SDS011;1456;51.840;12.184;2023-08-07T14:14:24;6.70;;;6.60;;
2892;SDS011;1456;51.840;12.184;2023-08-07T14:19:21;15.53;;;15.27;;
2892;SDS011;1456;51.840;12.184;2023-08-07T14:21:47;15.90;;;15.60;;
2892;SDS011;1456;51.840;12.184;2023-08-07T14:24:13;7.10;;;7.00;;
2892;SDS011;1456;51.840;12.184;2023-08-07T14:26:41;7.20;;;7.10;;
2892;SDS011;1456;51.840;12.184;2023-08-07T14:29:07;7.20;;;7.10;;
2892;SDS011;1456;51.840;12.184;2023-08-07T14:31:32;6.90;;;6.80;;
2892;SDS011;1456;51.840;12.184;2023-08-07T14:33:58;8.10;;;8.00;;
2892;SDS011;1456;51.840;12.184;2023-08-07T14:36:24;7.53;;;7.43;;
2892;SDS011;1456;51.840;12.184;2023-08-07T14:38:49;7.20;;;7.10;;
2892;SDS011;1456;51.840;12.184;2023-08-07T14:41:17;7.13;;;7.03;;
2892;SDS011;1456;51.840;12.184;2023-08-07T14:43:44;13.30;;;13.10;;
2892;SDS011;1456;51.840;12.184;2023-08-07T14:46:11;14.37;;;14.17;;
2892;SDS011;1456;51.840;12.184;2023-08-07T14:48:37;8.63;;;8.53;;
2892;SDS011;1456;51.840;12.184;2023-08-07T14:51:03;8.77;;;8.57;;
2892;SDS011;1456;51.840;12.184;2023-08-07T14:53:28;8.60;;;8.50;;
2892;SDS011;1456;51.840;12.184;2023-08-07T14:55:54;8.80;;;8.70;;
2892;SDS011;1456;51.840;12.184;2023-08-07T14:58:21;8.40;;;8.10;;
2892;SDS011;1456;51.840;12.184;2023-08-07T15:00:47;8.10;;;8.00;;
2892;SDS011;1456;51.840;12.184;2023-08-07T15:03:16;8.20;;;8.00;;
2892;SDS011;1456;51.840;12.184;2023-08-07T15:05:41;7.70;;;7.60;;
2892;SDS011;1456;51.840;12.184;2023-08-07T15:08:07;7.77;;;7.67;;
2892;SDS011;1456;51.840;12.184;2023-08-07T15:10:34;8.40;;;8.30;;
2892;SDS011;1456;51.840;12.184;2023-08-07T15:13:00;15.10;;;14.90;;
2892;SDS011;1456;51.840;12.184;2023-08-07T15:15:26;7.20;;;7.10;;
2892;SDS011;1456;51.840;12.184;2023-08-07T15:17:52;8.20;;;7.80;;
2892;SDS011;1456;51.840;12.184;2023-08-07T15:20:17;7.60;;;7.50;;
2892;SDS011;1456;51.840;12.184;2023-08-07T15:22:45;8.80;;;8.70;;
2892;SDS011;1456;51.840;12.184;2023-08-07T15:25:12;9.17;;;9.07;;
2892;SDS011;1456;51.840;12.184;2023-08-07T15:27:38;8.93;;;8.83;;
2892;SDS011;1456;51.840;12.184;2023-08-07T15:30:05;8.70;;;8.60;;
2892;SDS011;1456;51.840;12.184;2023-08-07T15:32:32;9.17;;;9.07;;
2892;SDS011;1456;51.840;12.184;2023-08-07T15:34:58;8.33;;;8.23;;
2892;SDS011;1456;51.840;12.184;2023-08-07T15:37:24;8.57;;;8.47;;
2892;SDS011;1456;51.840;12.184;2023-08-07T15:39:52;8.87;;;8.67;;